Time;durP1;ratioP1;P1;durP2;ratioP2;P2;SDS_P1;SDS_P2;PMS_P1;PMS_P2;Temp;Humidity;BMP_temperature;BMP_pressure;BME280_temperature;BME280_humidity;BME280_pressure;Samples;Min_cycle;Max_cycle;Signal;HPM_P1;HPM_P2
2020/12/06 00:00:01;;;;;;;7.27;4.90;;;8.40;98.20;;;;;;4976655;28;20174;-74
2020/12/06 00:02:26;;;;;;;10.50;6.27;;;8.40;98.20;;;;;;4976663;28;20635;-74
2020/12/06 00:04:52;;;;;;;7.13;5.03;;;8.40;98.20;;;;;;4977535;28;20626;-74
2020/12/06 00:07:18;;;;;;;5.97;5.03;;;8.40;98.30;;;;;;4975998;28;20217;-74
2020/12/06 00:09:44;;;;;;;8.63;5.80;;;8.40;98.50;;;;;;4982084;28;20182;-74
2020/12/06 00:12:09;;;;;;;5.47;4.97;;;8.40;98.50;;;;;;4987681;28;20236;-74
2020/12/06 00:14:35;;;;;;;7.10;5.73;;;8.40;98.40;;;;;;4970278;28;20292;-75
2020/12/06 00:17:01;;;;;;;12.10;6.30;;;8.40;98.40;;;;;;4975584;28;20255;-75
2020/12/06 00:19:26;;;;;;;6.10;5.17;;;8.50;98.30;;;;;;4986811;28;20170;-75
2020/12/06 00:21:52;;;;;;;8.07;5.27;;;8.40;98.50;;;;;;4986228;28;20425;-75
2020/12/06 00:24:20;;;;;;;6.30;5.00;;;8.40;98.50;;;;;;4980028;28;20269;-75
2020/12/06 00:26:45;;;;;;;6.27;4.83;;;8.40;98.40;;;;;;4986009;28;20233;-75
2020/12/06 00:29:11;;;;;;;7.23;5.53;;;8.40;98.50;;;;;;4982131;28;20660;-75
2020/12/06 00:31:37;;;;;;;5.13;4.40;;;8.40;98.50;;;;;;4979779;28;20206;-75
2020/12/06 00:34:03;;;;;;;6.60;5.27;;;8.40;98.50;;;;;;4969435;28;20263;-75
2020/12/06 00:36:28;;;;;;;6.33;4.67;;;8.40;98.50;;;;;;4969421;28;20285;-75
2020/12/06 00:38:54;;;;;;;4.80;4.30;;;8.40;98.50;;;;;;4980439;28;20181;-75
2020/12/06 00:41:22;;;;;;;5.47;4.30;;;8.40;98.50;;;;;;4980284;28;20166;-75
2020/12/06 00:43:48;;;;;;;4.73;4.20;;;8.40;98.40;;;;;;4980830;28;20213;-75
2020/12/06 00:46:19;;;;;;;6.47;5.13;;;8.30;98.30;;;;;;4976963;28;20263;-74
2020/12/06 00:48:45;;;;;;;4.30;3.83;;;8.30;98.10;;;;;;4991762;28;20211;-75
2020/12/06 00:51:11;;;;;;;6.87;3.90;;;8.30;98.50;;;;;;4988136;28;20191;-75
2020/12/06 00:53:39;;;;;;;4.77;4.30;;;8.30;98.50;;;;;;4974293;28;20241;-75
2020/12/06 00:56:05;;;;;;;5.93;4.70;;;8.30;98.50;;;;;;4976712;28;20217;-75
2020/12/06 00:58:30;;;;;;;5.47;4.27;;;8.20;98.50;;;;;;4972768;28;20614;-75
2020/12/06 01:00:56;;;;;;;6.70;5.30;;;8.30;98.50;;;;;;4973548;28;20598;-75
2020/12/06 01:03:22;;;;;;;6.13;4.87;;;8.20;98.50;;;;;;4987459;28;20206;-75
2020/12/06 01:05:47;;;;;;;6.33;4.57;;;8.20;98.50;;;;;;4974721;28;20179;-75
2020/12/06 01:08:13;;;;;;;7.27;5.47;;;8.20;98.50;;;;;;4990158;28;20214;-75
2020/12/06 01:10:39;;;;;;;5.27;4.73;;;8.20;98.50;;;;;;4991636;28;20212;-75
2020/12/06 01:13:04;;;;;;;7.77;4.67;;;8.20;98.50;;;;;;4983047;28;20713;-75
2020/12/06 01:15:30;;;;;;;5.50;4.60;;;8.20;98.50;;;;;;4983721;28;20177;-75
2020/12/06 01:17:56;;;;;;;5.93;4.53;;;8.20;98.50;;;;;;4972205;28;20953;-75
2020/12/06 01:20:22;;;;;;;4.37;4.03;;;8.20;98.50;;;;;;4987831;28;20185;-75
2020/12/06 01:22:48;;;;;;;5.10;4.63;;;8.20;98.50;;;;;;4991314;28;20198;-75
2020/12/06 01:25:13;;;;;;;7.40;4.77;;;8.10;98.50;;;;;;4990430;28;20197;-75
2020/12/06 01:27:39;;;;;;;7.17;4.67;;;8.10;98.50;;;;;;4986851;28;20562;-74
2020/12/06 01:30:06;;;;;;;5.50;4.37;;;8.10;98.50;;;;;;4972015;28;20182;-75
2020/12/06 01:32:32;;;;;;;4.43;4.03;;;8.10;98.50;;;;;;4986492;28;20205;-74
2020/12/06 01:35:03;;;;;;;5.87;4.10;;;8.10;98.50;;;;;;4990785;28;20292;-74
2020/12/06 01:37:29;;;;;;;8.03;4.90;;;8.00;98.50;;;;;;4990728;28;20264;-74
2020/12/06 01:39:56;;;;;;;8.83;5.13;;;8.00;98.50;;;;;;4987087;28;20675;-74
2020/12/06 01:42:22;;;;;;;11.07;5.30;;;8.00;98.50;;;;;;4973753;28;20203;-74
2020/12/06 01:44:55;;;;;;;6.50;4.60;;;8.00;98.50;;;;;;4977481;28;20192;-74
2020/12/06 01:47:21;;;;;;;4.97;4.27;;;7.90;98.50;;;;;;4984958;28;20206;-74
2020/12/06 01:49:46;;;;;;;5.43;4.90;;;7.90;98.50;;;;;;4975486;28;20173;-74
2020/12/06 01:52:12;;;;;;;4.57;4.17;;;7.90;98.50;;;;;;4984933;28;20201;-74
2020/12/06 01:54:38;;;;;;;5.07;4.30;;;7.80;98.50;;;;;;4984628;28;20212;-75
2020/12/06 01:57:04;;;;;;;6.00;3.77;;;7.80;98.50;;;;;;4971577;28;20695;-75
2020/12/06 01:59:30;;;;;;;7.60;4.40;;;7.80;98.50;;;;;;4998237;28;20170;-75
2020/12/06 02:02:01;;;;;;;5.77;4.30;;;7.80;98.50;;;;;;4970743;28;20209;-75
2020/12/06 02:04:29;;;;;;;4.57;4.13;;;7.80;98.50;;;;;;4995949;28;20574;-75
2020/12/06 02:06:55;;;;;;;7.13;4.03;;;7.80;98.50;;;;;;4977973;28;20280;-75
2020/12/06 02:09:22;;;;;;;7.67;3.97;;;7.80;98.50;;;;;;4972195;28;20597;-75
2020/12/06 02:11:48;;;;;;;6.70;4.03;;;7.70;98.50;;;;;;4978941;28;20213;-75
2020/12/06 02:14:15;;;;;;;5.20;3.67;;;7.70;98.50;;;;;;4988831;28;20202;-75
2020/12/06 02:16:41;;;;;;;8.57;4.37;;;7.70;98.50;;;;;;4976461;28;20205;-75
2020/12/06 02:19:07;;;;;;;4.40;3.77;;;7.70;98.50;;;;;;4990031;28;20281;-75
2020/12/06 02:21:40;;;;;;;3.97;3.53;;;7.70;98.50;;;;;;4981248;28;20269;-75
2020/12/06 02:24:25;;;;;;;4.20;3.63;;;7.70;98.50;;;;;;4988522;28;20166;-75
2020/12/06 02:26:51;;;;;;;3.90;3.47;;;7.70;98.50;;;;;;4987727;28;20220;-75
2020/12/06 02:29:18;;;;;;;3.70;3.40;;;7.70;98.50;;;;;;4988151;28;20197;-75
2020/12/06 02:31:44;;;;;;;3.93;3.53;;;7.70;98.50;;;;;;4970808;28;20245;-75
2020/12/06 02:34:11;;;;;;;3.73;3.43;;;7.70;98.50;;;;;;4975509;28;20951;-75
2020/12/06 02:36:38;;;;;;;5.00;4.40;;;7.70;98.50;;;;;;4971940;28;20269;-75
2020/12/06 02:39:06;;;;;;;5.33;3.63;;;7.80;98.50;;;;;;4977608;28;20182;-75
2020/12/06 02:41:39;;;;;;;4.10;3.70;;;7.70;98.50;;;;;;4989884;28;20190;-75
2020/12/06 02:44:06;;;;;;;4.43;3.73;;;7.70;98.50;;;;;;4989239;28;20170;-75
2020/12/06 02:46:33;;;;;;;4.40;3.90;;;7.70;98.50;;;;;;4988721;28;20232;-75
2020/12/06 02:48:58;;;;;;;4.93;3.50;;;7.70;98.50;;;;;;4976982;28;20248;-75
2020/12/06 02:51:25;;;;;;;4.73;4.27;;;7.70;98.50;;;;;;4981452;28;20210;-74
2020/12/06 02:53:50;;;;;;;4.27;3.23;;;7.70;98.50;;;;;;4971626;28;20536;-74
2020/12/06 02:56:16;;;;;;;4.30;3.83;;;7.70;98.50;;;;;;4970068;28;20226;-74
2020/12/06 02:58:42;;;;;;;4.00;3.67;;;7.60;98.50;;;;;;4971351;28;20589;-74
2020/12/06 03:01:07;;;;;;;4.40;4.00;;;7.60;98.50;;;;;;4987121;28;20644;-74
2020/12/06 03:03:33;;;;;;;5.53;3.77;;;7.60;98.50;;;;;;4973895;28;20210;-74
2020/12/06 03:05:59;;;;;;;4.07;3.67;;;7.60;98.50;;;;;;4985541;28;20200;-76
2020/12/06 03:08:24;;;;;;;6.90;4.37;;;7.60;98.50;;;;;;4989275;28;20225;-75
2020/12/06 03:10:50;;;;;;;6.73;4.40;;;7.60;98.50;;;;;;4976199;28;20240;-74
2020/12/06 03:13:16;;;;;;;5.10;3.83;;;7.60;98.50;;;;;;4995971;28;20206;-74
2020/12/06 03:15:41;;;;;;;3.43;3.23;;;7.60;98.50;;;;;;4987695;28;20177;-74
2020/12/06 03:18:07;;;;;;;4.87;3.67;;;7.70;98.50;;;;;;4987689;28;20193;-75
2020/12/06 03:20:32;;;;;;;3.87;3.63;;;7.70;98.50;;;;;;4982797;28;20182;-75
2020/12/06 03:22:59;;;;;;;5.27;4.03;;;7.70;98.50;;;;;;4987745;28;20200;-75
2020/12/06 03:25:25;;;;;;;4.83;3.63;;;7.70;98.50;;;;;;4997462;28;20170;-75
2020/12/06 03:27:51;;;;;;;4.47;3.43;;;7.70;98.50;;;;;;4989126;28;20205;-75
2020/12/06 03:30:16;;;;;;;4.60;3.87;;;7.70;98.50;;;;;;4987616;28;20525;-75
2020/12/06 03:32:42;;;;;;;5.10;4.27;;;7.70;98.50;;;;;;4985244;28;20212;-75
2020/12/06 03:35:08;;;;;;;4.37;3.97;;;7.70;98.50;;;;;;4980696;28;20567;-75
2020/12/06 03:37:34;;;;;;;7.47;4.50;;;7.80;98.50;;;;;;4974515;28;20618;-71
2020/12/06 03:40:00;;;;;;;5.27;4.17;;;7.80;98.50;;;;;;4975752;28;20213;-72
2020/12/06 03:42:25;;;;;;;4.40;4.00;;;7.80;98.50;;;;;;4984462;28;20198;-72
2020/12/06 03:44:51;;;;;;;6.13;4.80;;;7.80;98.50;;;;;;4984431;28;20182;-72
2020/12/06 03:47:17;;;;;;;5.33;3.60;;;7.80;98.50;;;;;;4968203;28;20198;-72
2020/12/06 03:49:43;;;;;;;4.17;3.83;;;7.80;98.50;;;;;;4978189;28;20222;-74
2020/12/06 03:52:09;;;;;;;4.33;3.67;;;7.80;98.50;;;;;;4969524;28;20252;-74
2020/12/06 03:54:35;;;;;;;3.47;3.27;;;7.80;98.50;;;;;;4969001;28;20210;-74
2020/12/06 03:57:01;;;;;;;4.50;4.10;;;7.80;98.50;;;;;;4969198;28;20190;-74
2020/12/06 03:59:26;;;;;;;3.93;3.63;;;7.80;98.50;;;;;;5000198;28;20512;-74
2020/12/06 04:01:52;;;;;;;6.73;4.03;;;7.80;98.50;;;;;;4988387;28;20181;-75
2020/12/06 04:04:18;;;;;;;6.47;3.57;;;7.70;98.50;;;;;;4986947;28;20201;-75
2020/12/06 04:06:43;;;;;;;5.27;4.27;;;7.70;98.50;;;;;;4969072;28;20206;-74
2020/12/06 04:09:09;;;;;;;10.13;4.10;;;7.70;98.50;;;;;;4983322;28;20196;-74
2020/12/06 04:11:34;;;;;;;5.63;3.87;;;7.70;98.50;;;;;;4985271;28;20205;-74
2020/12/06 04:14:00;;;;;;;5.87;3.53;;;7.70;98.50;;;;;;4988168;28;20683;-74
2020/12/06 04:16:26;;;;;;;4.20;3.73;;;7.80;98.50;;;;;;4988251;28;20246;-74
2020/12/06 04:18:52;;;;;;;4.03;3.33;;;7.70;98.50;;;;;;5003160;28;20524;-74
2020/12/06 04:21:18;;;;;;;6.00;3.93;;;7.80;98.50;;;;;;4975441;28;20264;-74
2020/12/06 04:23:43;;;;;;;9.47;4.57;;;7.80;98.50;;;;;;4980693;28;20190;-74
2020/12/06 04:26:09;;;;;;;4.40;3.87;;;7.80;98.50;;;;;;4998682;28;20788;-74
2020/12/06 04:28:35;;;;;;;3.87;3.57;;;7.80;98.50;;;;;;4985462;28;20522;-74
2020/12/06 04:31:00;;;;;;;3.90;3.60;;;7.80;98.50;;;;;;4978216;28;20206;-75
2020/12/06 04:33:26;;;;;;;3.33;3.03;;;7.80;98.50;;;;;;4987764;28;20548;-74
2020/12/06 04:35:52;;;;;;;4.47;3.93;;;7.80;98.50;;;;;;5001991;28;20189;-74
2020/12/06 04:38:18;;;;;;;6.53;3.67;;;7.90;98.50;;;;;;4988562;28;20193;-74
2020/12/06 04:40:44;;;;;;;3.57;3.27;;;7.90;98.50;;;;;;4983997;28;20182;-74
2020/12/06 04:43:11;;;;;;;5.53;3.67;;;7.90;98.50;;;;;;5003435;28;20193;-74
2020/12/06 04:45:36;;;;;;;4.53;3.83;;;7.90;98.50;;;;;;4976377;28;20240;-74
2020/12/06 04:48:05;;;;;;;5.93;3.73;;;7.90;98.50;;;;;;4968653;28;20202;-74
2020/12/06 04:50:36;;;;;;;3.13;2.93;;;7.90;98.50;;;;;;4976994;28;20178;-73
2020/12/06 04:53:04;;;;;;;3.53;3.20;;;8.00;98.50;;;;;;4994652;28;20642;-74
2020/12/06 04:55:35;;;;;;;4.47;3.40;;;8.00;98.50;;;;;;5006204;28;20184;-74
2020/12/06 04:58:03;;;;;;;3.37;3.07;;;8.00;98.50;;;;;;4990005;28;20201;-75
2020/12/06 05:00:36;;;;;;;4.53;3.63;;;8.00;98.50;;;;;;4987016;28;20188;-74
2020/12/06 05:03:07;;;;;;;3.97;3.67;;;8.00;98.50;;;;;;5002880;28;20202;-74
2020/12/06 05:05:40;;;;;;;3.80;3.50;;;8.00;98.50;;;;;;4978339;28;20182;-75
2020/12/06 05:08:13;;;;;;;4.30;3.60;;;8.10;98.50;;;;;;4980048;28;20194;-75
2020/12/06 05:10:46;;;;;;;3.33;3.00;;;8.10;98.50;;;;;;4974631;28;20244;-75
2020/12/06 05:13:13;;;;;;;4.40;3.40;;;8.10;98.50;;;;;;4974766;28;20203;-75
2020/12/06 05:15:39;;;;;;;3.00;2.80;;;8.10;98.50;;;;;;4976136;28;20171;-76
2020/12/06 05:18:05;;;;;;;5.50;4.00;;;8.10;98.50;;;;;;4979049;28;20512;-75
2020/12/06 05:20:31;;;;;;;3.73;3.23;;;8.10;98.50;;;;;;4982347;28;20206;-75
2020/12/06 05:22:57;;;;;;;3.63;3.33;;;8.10;98.50;;;;;;4977122;28;20647;-75
2020/12/06 05:25:23;;;;;;;4.93;3.37;;;8.20;98.50;;;;;;5002210;28;20197;-75
2020/12/06 05:27:49;;;;;;;3.97;3.43;;;8.20;98.50;;;;;;4981331;28;20344;-74
2020/12/06 05:30:16;;;;;;;3.87;3.30;;;8.20;98.50;;;;;;4986757;28;20175;-75
2020/12/06 05:32:43;;;;;;;3.27;2.97;;;8.20;98.50;;;;;;4984237;28;20510;-75
2020/12/06 05:35:10;;;;;;;3.90;3.50;;;8.20;98.50;;;;;;4989593;28;20201;-75
2020/12/06 05:37:37;;;;;;;3.37;3.07;;;8.20;98.50;;;;;;4991161;28;20565;-75
2020/12/06 05:40:09;;;;;;;4.13;3.30;;;8.30;98.50;;;;;;4987432;28;20185;-75
2020/12/06 05:42:37;;;;;;;5.77;3.57;;;8.30;98.50;;;;;;4970301;28;20565;-75
2020/12/06 05:45:03;;;;;;;4.50;2.53;;;8.20;98.50;;;;;;4972233;28;20178;-75
2020/12/06 05:47:29;;;;;;;4.30;3.50;;;8.20;98.50;;;;;;4987643;28;20213;-75
2020/12/06 05:49:56;;;;;;;3.30;3.00;;;8.20;98.50;;;;;;4988583;28;20268;-75
2020/12/06 05:52:23;;;;;;;6.20;3.37;;;8.30;98.50;;;;;;4985396;28;20693;-76
2020/12/06 05:54:50;;;;;;;6.57;3.57;;;8.30;98.50;;;;;;4990507;28;20536;-76
2020/12/06 05:57:16;;;;;;;3.93;3.60;;;8.30;98.50;;;;;;4989682;28;20197;-75
2020/12/06 05:59:43;;;;;;;3.53;3.33;;;8.30;98.50;;;;;;4989160;28;20240;-75
2020/12/06 06:02:09;;;;;;;3.53;3.13;;;8.30;98.50;;;;;;4975219;28;20205;-75
2020/12/06 06:04:41;;;;;;;5.80;3.63;;;8.40;98.50;;;;;;4986049;28;20209;-75
2020/12/06 06:07:14;;;;;;;5.00;3.57;;;8.50;98.50;;;;;;4971363;28;20209;-75
2020/12/06 06:09:46;;;;;;;3.00;2.80;;;8.50;98.50;;;;;;4975378;28;20240;-76
2020/12/06 06:12:21;;;;;;;4.30;3.30;;;8.50;98.50;;;;;;4989602;28;20552;-75
2020/12/06 06:14:48;;;;;;;3.80;3.43;;;8.50;98.50;;;;;;4987412;28;20518;-75
2020/12/06 06:17:15;;;;;;;3.33;2.97;;;8.60;98.50;;;;;;4990662;28;20224;-75
2020/12/06 06:19:41;;;;;;;3.20;2.90;;;8.60;98.50;;;;;;5005797;28;20174;-75
2020/12/06 06:22:07;;;;;;;6.20;3.90;;;8.60;98.50;;;;;;5000344;28;20201;-74
2020/12/06 06:24:34;;;;;;;2.90;2.73;;;8.60;98.50;;;;;;4974975;28;20197;-74
2020/12/06 06:27:01;;;;;;;5.63;3.93;;;8.60;98.50;;;;;;5005134;28;20204;-76
2020/12/06 06:29:27;;;;;;;3.13;2.83;;;8.60;98.50;;;;;;4971161;28;20198;-74
2020/12/06 06:31:54;;;;;;;3.07;2.87;;;8.60;98.50;;;;;;4972674;28;20663;-75
2020/12/06 06:34:24;;;;;;;3.93;2.87;;;8.60;98.50;;;;;;4973673;28;20206;-73
2020/12/06 06:36:51;;;;;;;6.00;3.20;;;8.70;98.50;;;;;;4989747;28;20197;-74
2020/12/06 06:39:22;;;;;;;3.87;3.30;;;8.70;98.50;;;;;;4990113;28;20573;-74
2020/12/06 06:42:07;;;;;;;5.33;3.00;;;8.80;98.50;;;;;;4990311;28;20225;-74
2020/12/06 06:44:36;;;;;;;3.30;3.00;;;8.80;98.50;;;;;;4989865;28;20320;-74
2020/12/06 06:47:05;;;;;;;3.60;3.30;;;8.90;98.50;;;;;;4988941;28;20206;-74
2020/12/06 06:49:30;;;;;;;6.07;3.50;;;8.90;98.50;;;;;;4987840;28;20186;-72
2020/12/06 06:52:03;;;;;;;5.57;3.50;;;8.90;98.50;;;;;;4988938;28;20240;-72
2020/12/06 06:54:30;;;;;;;3.37;3.07;;;9.00;98.50;;;;;;4990558;28;20502;-74
2020/12/06 06:56:57;;;;;;;5.60;2.83;;;9.00;98.50;;;;;;4990574;28;20197;-73
2020/12/06 06:59:40;;;;;;;5.27;3.63;;;9.00;98.50;;;;;;4990726;28;20257;-74
2020/12/06 07:02:06;;;;;;;7.10;3.00;;;9.10;98.40;;;;;;4984775;28;20202;-73
2020/12/06 07:04:32;;;;;;;3.28;3.00;;;9.10;98.20;;;;;;4982691;28;20182;-73
2020/12/06 07:06:58;;;;;;;2.93;2.83;;;9.10;97.70;;;;;;4990615;28;20212;-74
2020/12/06 07:09:25;;;;;;;3.03;2.85;;;9.10;97.80;;;;;;4989342;28;20514;-73
2020/12/06 07:11:56;;;;;;;3.60;3.30;;;9.10;97.50;;;;;;4988893;28;20198;-73
2020/12/06 07:14:24;;;;;;;5.70;3.43;;;9.20;97.50;;;;;;5004933;28;20244;-75
2020/12/06 07:16:51;;;;;;;3.00;2.80;;;9.20;97.20;;;;;;4989926;28;20539;-74
2020/12/06 07:19:17;;;;;;;3.75;2.58;;;9.30;97.10;;;;;;4988882;28;20549;-73
2020/12/06 07:21:42;;;;;;;2.97;2.78;;;9.30;97.00;;;;;;4984253;28;20293;-73
2020/12/06 07:24:10;;;;;;;2.60;2.40;;;9.40;96.70;;;;;;4989736;28;20185;-74
2020/12/06 07:26:36;;;;;;;6.40;3.03;;;9.40;95.90;;;;;;4989620;28;20202;-74
2020/12/06 07:29:02;;;;;;;4.70;3.03;;;9.40;95.40;;;;;;4989554;28;20224;-73
2020/12/06 07:31:28;;;;;;;2.85;2.75;;;9.40;94.70;;;;;;4986440;28;20269;-73
2020/12/06 07:33:54;;;;;;;3.10;2.93;;;9.40;95.20;;;;;;4988566;28;20591;-73
2020/12/06 07:36:21;;;;;;;3.17;2.87;;;9.40;94.80;;;;;;4989638;28;20639;-73
2020/12/06 07:38:47;;;;;;;3.50;3.20;;;9.30;94.60;;;;;;4989625;28;20190;-73
2020/12/06 07:41:12;;;;;;;3.10;2.63;;;9.30;94.90;;;;;;4989380;28;20193;-73
2020/12/06 07:43:39;;;;;;;4.22;3.50;;;9.40;94.70;;;;;;4989608;28;20253;-74
2020/12/06 07:46:16;;;;;;;2.90;2.67;;;9.40;94.20;;;;;;4989446;28;20723;-74
2020/12/06 07:48:43;;;;;;;4.17;2.80;;;9.50;94.30;;;;;;4988363;28;20161;-74
2020/12/06 07:51:10;;;;;;;3.83;2.92;;;9.50;94.40;;;;;;4988925;28;20178;-73
2020/12/06 07:53:43;;;;;;;2.70;2.50;;;9.50;94.20;;;;;;4987512;28;20208;-72
2020/12/06 07:56:09;;;;;;;2.90;2.63;;;9.60;94.50;;;;;;4988371;28;20182;-72
2020/12/06 07:58:40;;;;;;;3.05;2.75;;;9.70;94.40;;;;;;4988160;28;20193;-72
2020/12/06 08:01:06;;;;;;;3.20;2.78;;;9.80;94.10;;;;;;4986599;28;20177;-72
2020/12/06 08:03:33;;;;;;;2.75;2.65;;;10.00;93.80;;;;;;4983488;28;20208;-71
2020/12/06 08:06:01;;;;;;;2.92;2.72;;;10.10;92.50;;;;;;4976127;28;20186;-70
2020/12/06 08:08:27;;;;;;;3.42;3.13;;;10.20;92.60;;;;;;4988244;28;20213;-69
2020/12/06 08:10:58;;;;;;;3.17;2.65;;;10.20;91.90;;;;;;4988022;28;20311;-70
2020/12/06 08:13:24;;;;;;;4.05;2.45;;;10.40;91.80;;;;;;4988628;28;20200;-70
2020/12/06 08:15:49;;;;;;;4.32;3.45;;;10.40;91.50;;;;;;4986944;28;20604;-70
2020/12/06 08:18:17;;;;;;;3.03;2.83;;;10.40;91.30;;;;;;4987966;28;20201;-69
2020/12/06 08:20:55;;;;;;;3.20;3.00;;;10.40;90.70;;;;;;4986531;28;20498;-69
2020/12/06 08:23:32;;;;;;;4.68;3.60;;;10.40;91.10;;;;;;5003548;28;20193;-69
2020/12/06 08:25:58;;;;;;;3.53;3.13;;;10.40;91.10;;;;;;4986850;28;20250;-70
2020/12/06 08:28:23;;;;;;;4.25;3.88;;;10.20;91.10;;;;;;4971888;28;20252;-68
2020/12/06 08:30:49;;;;;;;3.70;3.40;;;10.20;91.30;;;;;;4988056;28;20201;-68
2020/12/06 08:33:22;;;;;;;3.78;3.47;;;10.20;91.50;;;;;;4985716;28;20731;-69
2020/12/06 08:35:51;;;;;;;3.85;3.50;;;10.20;91.70;;;;;;5000879;28;20180;-69
2020/12/06 08:38:27;;;;;;;5.03;3.38;;;10.20;91.40;;;;;;4981543;28;20629;-69
2020/12/06 08:41:07;;;;;;;4.43;3.47;;;10.20;91.30;;;;;;4978246;28;20321;-67
2020/12/06 08:44:05;;;;;;;4.03;3.58;;;10.10;91.60;;;;;;4986216;28;20241;-70
2020/12/06 08:46:32;;;;;;;4.95;3.78;;;10.00;92.00;;;;;;4980000;28;20604;-70
2020/12/06 08:49:02;;;;;;;4.35;3.75;;;10.00;92.40;;;;;;4968490;28;20584;-69
2020/12/06 08:51:39;;;;;;;6.20;4.20;;;10.00;92.10;;;;;;4984741;28;20301;-69
2020/12/06 09:00:51;;;;;;;5.53;4.03;;;9.90;92.70;;;;;;5020399;28;20789;-73
2020/12/06 09:03:17;;;;;;;4.45;4.05;;;9.90;92.70;;;;;;5011054;28;20283;-73
2020/12/06 09:05:45;;;;;;;3.95;3.65;;;9.90;92.60;;;;;;5027676;28;20191;-74
2020/12/06 09:08:11;;;;;;;4.03;3.63;;;9.90;92.80;;;;;;5033180;28;20207;-74
2020/12/06 09:10:36;;;;;;;3.83;3.45;;;9.90;92.90;;;;;;5030925;28;20184;-74
2020/12/06 09:23:47;;;;;;;4.65;3.95;;;10.00;92.40;;;;;;5012426;28;20293;-74
2020/12/06 09:26:14;;;;;;;4.32;3.72;;;10.00;92.70;;;;;;5029117;28;20179;-72
2020/12/06 09:28:41;;;;;;;6.10;4.13;;;10.00;92.70;;;;;;5018356;28;20185;-72
2020/12/06 09:31:07;;;;;;;5.70;4.43;;;10.00;92.80;;;;;;5010576;28;20740;-72
2020/12/06 09:33:32;;;;;;;5.32;4.15;;;10.00;92.80;;;;;;4993889;28;20399;-72
2020/12/06 09:35:58;;;;;;;5.25;4.25;;;10.00;92.90;;;;;;5009331;28;20177;-72
2020/12/06 09:38:24;;;;;;;4.00;3.70;;;10.00;92.70;;;;;;5009216;28;20343;-71
2020/12/06 09:40:50;;;;;;;6.50;4.47;;;10.00;92.80;;;;;;5009914;28;20177;-72
2020/12/06 09:43:16;;;;;;;5.28;4.20;;;10.00;92.80;;;;;;5009093;28;20197;-71
2020/12/06 09:45:42;;;;;;;5.18;4.00;;;9.90;92.80;;;;;;5008663;28;20208;-72
2020/12/06 09:48:09;;;;;;;5.78;3.67;;;9.90;93.10;;;;;;5008704;28;20276;-72
2020/12/06 09:50:34;;;;;;;4.97;4.32;;;9.80;93.20;;;;;;5009227;28;20177;-70
2020/12/06 09:53:00;;;;;;;6.03;4.18;;;9.80;93.50;;;;;;5005590;28;20224;-72
2020/12/06 09:55:26;;;;;;;5.65;4.55;;;9.80;93.60;;;;;;4983244;28;20231;-71
2020/12/06 09:57:51;;;;;;;5.30;4.85;;;9.80;93.70;;;;;;4996578;28;20650;-72
2020/12/06 10:00:18;;;;;;;4.97;4.57;;;9.70;93.90;;;;;;5002223;28;20177;-71
2020/12/06 10:02:43;;;;;;;5.85;4.50;;;9.70;94.40;;;;;;5009705;28;20197;-71
2020/12/06 10:05:11;;;;;;;6.38;5.28;;;9.70;94.60;;;;;;5008215;28;20192;-71
2020/12/06 10:07:37;;;;;;;7.32;4.85;;;9.70;94.50;;;;;;4991837;28;20650;-71
2020/12/06 10:10:07;;;;;;;8.98;5.10;;;9.70;94.40;;;;;;5016866;28;20463;-71
2020/12/06 10:12:33;;;;;;;5.50;4.53;;;9.70;94.70;;;;;;4991128;28;20254;-71
2020/12/06 10:14:59;;;;;;;7.13;5.45;;;9.70;94.70;;;;;;4992217;28;20589;-71
2020/12/06 10:17:24;;;;;;;4.82;4.43;;;9.70;94.50;;;;;;4994350;28;20204;-71
2020/12/06 10:19:50;;;;;;;7.25;4.93;;;9.70;94.60;;;;;;5019293;28;20632;-71
2020/12/06 10:22:16;;;;;;;7.50;4.70;;;9.70;94.90;;;;;;5008159;28;20212;-71
2020/12/06 10:24:42;;;;;;;8.40;5.15;;;9.60;94.90;;;;;;5008788;28;20236;-71
2020/12/06 10:27:07;;;;;;;8.52;4.97;;;9.60;95.00;;;;;;4993334;28;20251;-71
2020/12/06 10:29:33;;;;;;;8.57;5.10;;;9.60;95.20;;;;;;5016891;28;20267;-71
2020/12/06 10:32:00;;;;;;;7.35;4.60;;;9.60;95.40;;;;;;5007545;28;20201;-72
2020/12/06 10:34:26;;;;;;;5.28;4.82;;;9.60;95.50;;;;;;5016944;28;20603;-72
2020/12/06 10:36:54;;;;;;;9.35;4.60;;;9.70;95.20;;;;;;5008065;28;20547;-71
2020/12/06 10:39:20;;;;;;;6.67;5.47;;;9.80;95.30;;;;;;4989480;28;20272;-71
2020/12/06 10:41:50;;;;;;;8.93;5.70;;;9.80;94.80;;;;;;4991556;28;20240;-71
2020/12/06 10:44:17;;;;;;;6.30;5.10;;;9.90;94.90;;;;;;5012973;28;20199;-75
2020/12/06 10:46:43;;;;;;;9.55;5.50;;;10.00;94.20;;;;;;4990273;28;20243;-73
2020/12/06 10:49:09;;;;;;;6.55;5.47;;;10.10;94.50;;;;;;4998690;28;20700;-72
2020/12/06 10:51:37;;;;;;;5.65;5.20;;;10.10;94.30;;;;;;5012305;28;20216;-72
2020/12/06 10:54:02;;;;;;;8.25;5.50;;;10.10;94.20;;;;;;4996357;28;20228;-72
2020/12/06 10:56:29;;;;;;;9.88;5.15;;;10.10;94.50;;;;;;5021752;28;20548;-72
2020/12/06 10:58:55;;;;;;;6.20;5.13;;;10.10;94.30;;;;;;5014338;28;20223;-72
2020/12/06 11:01:32;;;;;;;8.60;5.45;;;10.20;94.40;;;;;;5003601;28;20215;-72
2020/12/06 11:03:59;;;;;;;9.68;5.75;;;10.20;94.30;;;;;;4998551;28;20202;-72
2020/12/06 11:06:25;;;;;;;7.07;6.00;;;10.30;94.00;;;;;;4990581;28;20185;-71
2020/12/06 11:08:52;;;;;;;6.75;5.68;;;10.40;93.80;;;;;;5008265;28;20200;-71
2020/12/06 11:11:20;;;;;;;8.73;5.45;;;10.40;93.20;;;;;;5009746;28;20236;-71
2020/12/06 11:13:46;;;;;;;8.55;6.40;;;10.40;93.20;;;;;;5008347;28;20205;-72
2020/12/06 11:16:22;;;;;;;12.48;7.93;;;10.40;93.40;;;;;;5007379;28;20196;-71
2020/12/06 11:18:49;;;;;;;10.05;6.68;;;10.40;93.50;;;;;;5022054;28;20181;-71
2020/12/06 11:21:17;;;;;;;15.60;7.50;;;10.50;93.40;;;;;;5020961;28;20267;-71
2020/12/06 11:23:43;;;;;;;15.45;7.43;;;10.70;93.30;;;;;;5002407;28;20204;-71
2020/12/06 11:26:09;;;;;;;14.35;7.30;;;10.90;92.80;;;;;;5022236;28;20196;-71
2020/12/06 11:28:35;;;;;;;10.98;7.25;;;11.00;92.10;;;;;;5018668;28;20516;-70
2020/12/06 11:31:01;;;;;;;11.63;6.70;;;11.10;91.10;;;;;;5018782;28;20251;-71
2020/12/06 11:33:26;;;;;;;16.60;7.53;;;11.00;90.90;;;;;;4997452;28;20212;-72
2020/12/06 11:35:52;;;;;;;8.07;6.35;;;10.90;91.00;;;;;;4991026;28;20629;-72
2020/12/06 11:38:18;;;;;;;8.70;6.30;;;10.80;90.90;;;;;;5010968;28;20216;-72
2020/12/06 11:40:43;;;;;;;12.52;6.47;;;10.60;91.30;;;;;;4991228;28;20216;-71
2020/12/06 11:43:09;;;;;;;5.70;5.13;;;10.50;91.90;;;;;;5027343;28;20208;-72
2020/12/06 11:45:36;;;;;;;6.82;5.60;;;10.50;92.00;;;;;;5010288;28;20180;-72
2020/12/06 11:48:02;;;;;;;11.82;5.82;;;10.60;92.10;;;;;;4993358;28;20267;-72
2020/12/06 11:50:28;;;;;;;5.80;4.88;;;10.60;92.00;;;;;;4989849;28;20184;-72
2020/12/06 11:52:54;;;;;;;8.65;5.57;;;10.70;91.90;;;;;;5005322;28;20220;-72
2020/12/06 11:55:19;;;;;;;11.35;6.38;;;10.70;91.70;;;;;;5015272;28;20205;-72
2020/12/06 11:57:45;;;;;;;7.20;5.13;;;10.70;91.60;;;;;;4997355;28;20200;-72
2020/12/06 12:00:11;;;;;;;5.40;4.90;;;10.70;91.50;;;;;;5012376;28;20239;-71
2020/12/06 12:02:37;;;;;;;9.45;5.55;;;10.70;91.40;;;;;;4998494;28;20211;-72
2020/12/06 12:05:04;;;;;;;10.52;5.55;;;10.60;91.40;;;;;;4994154;28;20653;-72
2020/12/06 12:07:31;;;;;;;8.10;5.82;;;10.60;91.60;;;;;;5015931;28;20208;-72
2020/12/06 12:09:57;;;;;;;9.82;5.15;;;10.60;91.70;;;;;;5009930;28;20184;-71
2020/12/06 12:12:22;;;;;;;8.40;5.63;;;10.60;91.50;;;;;;4999236;28;20216;-72
2020/12/06 12:14:48;;;;;;;8.85;6.03;;;10.70;91.40;;;;;;4982979;28;20243;-72
2020/12/06 12:17:13;;;;;;;7.65;5.57;;;10.70;91.30;;;;;;4992032;28;20503;-72
2020/12/06 12:19:39;;;;;;;6.93;5.65;;;10.70;91.20;;;;;;5015462;28;20188;-73
2020/12/06 12:22:05;;;;;;;7.93;5.68;;;10.70;91.10;;;;;;5004028;28;20670;-71
2020/12/06 12:24:31;;;;;;;6.82;5.22;;;10.70;91.30;;;;;;5007358;28;20268;-72
2020/12/06 12:27:00;;;;;;;8.55;5.85;;;10.70;91.20;;;;;;5022063;28;20577;-72
2020/12/06 12:29:26;;;;;;;10.80;5.75;;;10.70;91.10;;;;;;4987865;28;20224;-72
2020/12/06 12:31:52;;;;;;;8.32;5.28;;;10.70;91.10;;;;;;4982938;28;20217;-71
2020/12/06 12:34:18;;;;;;;10.27;6.72;;;10.70;91.20;;;;;;5003340;28;20660;-71
2020/12/06 12:36:44;;;;;;;10.63;6.35;;;10.70;91.10;;;;;;4993892;28;20203;-72
2020/12/06 12:39:11;;;;;;;5.68;5.10;;;10.70;91.00;;;;;;5013566;28;20180;-71
2020/12/06 12:41:37;;;;;;;6.18;5.07;;;10.80;91.10;;;;;;5013208;28;20571;-71
2020/12/06 12:44:04;;;;;;;7.85;5.95;;;10.80;91.00;;;;;;4996837;28;20255;-71
2020/12/06 12:46:31;;;;;;;10.25;6.40;;;10.80;91.00;;;;;;4995640;28;20671;-72
2020/12/06 12:48:57;;;;;;;8.10;5.93;;;10.90;90.90;;;;;;5013676;28;20196;-71
2020/12/06 12:51:23;;;;;;;7.55;5.80;;;11.10;90.60;;;;;;5026363;28;20602;-72
2020/12/06 12:53:48;;;;;;;7.40;5.78;;;11.30;90.60;;;;;;5024618;28;20227;-67
2020/12/06 12:56:14;;;;;;;7.57;5.53;;;11.70;89.80;;;;;;4993282;28;20215;-70
2020/12/06 12:58:40;;;;;;;8.18;5.75;;;12.10;88.50;;;;;;5015993;28;20196;-69
2020/12/06 13:01:06;;;;;;;7.13;5.68;;;12.40;87.20;;;;;;4992591;28;20231;-68
2020/12/06 13:03:32;;;;;;;11.20;6.47;;;12.80;86.90;;;;;;5028574;28;20270;-69
2020/12/06 13:05:57;;;;;;;10.57;6.40;;;13.00;86.40;;;;;;4992187;28;20185;-69
2020/12/06 13:08:23;;;;;;;8.18;6.50;;;13.30;85.40;;;;;;4997034;28;20225;-69